Latest Weather Observations for Swan Island

IDT60801

Issued at 5:11 am EDT Sunday 25 October 2020 (issued every 10 minutes, with the page automatically refreshed every 10 minutes)

About weather observations | Map of weather stations | Latest weather observations for TAS | Other Formats
Station Details ID: 092123 Name: SWAN ISLAND Lat: -40.73 Lon: 148.12 Height: 15.0 m
Data from the previous 72 hours. | See also: Recent months at Swan Island
Date/Time
EDT
Temp
°C
App
Temp
°C
Dew
Point
°C
Rel
Hum
%
Delta-T
°C
Wind Press
QNH
hPa
Press
MSL
hPa
Rain since
9am
mm
Dir  Spd
km/h
Gust
km/h
Spd
kts
Gust
kts
25/05:05am 7.4 -2.0 2.1 69 2.2 SSE 41 59 22 32 1015.6 1015.6 2.0
25/05:00am 7.2 -1.5 1.9 69 2.2 S 37 52 20 28 1015.7 1015.7 2.0
25/04:30am 6.9 -1.6 3.0 76 1.6 S 37 54 20 29 1015.0 1015.0 2.0
25/04:17am 6.9 -3.2 3.5 79 1.4 SSE 46 65 25 35 1014.4 1014.4 2.0
25/04:00am 6.8 -3.3 3.9 82 1.2 SSE 46 63 25 34 1014.3 1014.3 2.0
25/03:37am 6.8 -1.5 4.1 83 1.2 S 37 56 20 30 1014.0 1014.0 1.6
25/03:30am 7.1 -1.9 4.4 83 1.2 SSE 41 52 22 28 1013.7 1013.7 1.6
25/03:00am 7.6 -2.5 3.8 77 1.6 SSE 46 57 25 31 1012.9 1012.8 1.2
25/02:39am 7.7 -1.8 4.7 81 1.3 SSE 44 65 24 35 1012.4 1012.3 1.0
25/02:30am 8.0 -1.8 5.3 83 1.2 SSE 46 63 25 34 1012.3 1012.2 1.0
25/02:00am 8.2 -1.3 5.0 80 1.4 SSE 44 61 24 33 1011.9 1011.8 0.2
25/01:30am 8.6 -1.6 5.0 78 1.6 SSE 48 65 26 35 1011.3 1011.2 0.2
25/01:00am 9.4 0.5 7.5 88 0.9 SSE 44 57 24 31 1010.9 1010.8 0.2
25/12:30am 9.9 1.3 8.3 90 0.8 SSE 43 59 23 32 1010.0 1010.0 0.2
25/12:10am 10.8 4.9 9.1 89 0.8 SSE 30 50 16 27 1009.4 1009.4 0.2
25/12:00am 10.6 5.7 8.5 87 1.0 SSE 24 32 13 17 1009.3 1009.3 0.2
 
Date/Time
EDT
Temp
°C
App
Temp
°C
Dew
Point
°C
Rel
Hum
%
Delta-T
°C
Wind Press
QNH
hPa
Press
MSL
hPa
Rain since
9am
mm
Dir  Spd
km/h
Gust
km/h
Spd
kts
Gust
kts
24/11:30pm 10.3 3.2 7.9 85 1.2 SSE 35 46 19 25 1009.0 1009.0 0.2
24/11:00pm 11.4 5.2 10.0 91 0.7 SE 33 43 18 23 1008.6 1008.6 0.2
24/10:30pm 11.8 7.0 10.4 91 0.7 SSE 26 35 14 19 1008.3 1008.3 0.2
24/10:00pm 11.9 7.2 10.5 91 0.7 SE 26 33 14 18 1008.1 1008.1 0.2
24/09:30pm 11.7 6.6 10.6 93 0.6 SE 28 33 15 18 1007.7 1007.7 0.2
24/09:00pm 11.5 6.8 10.6 94 0.5 SE 26 33 14 18 1007.1 1007.1 0.2
24/08:30pm 11.6 6.1 10.7 94 0.5 SE 30 37 16 20 1006.3 1006.3 0.2
24/08:00pm 11.4 5.5 10.3 93 0.6 SE 32 39 17 21 1005.6 1005.6 0.2
24/07:30pm 11.7 6.2 10.4 92 0.7 SSE 30 37 16 20 1005.2 1005.2 0.2
24/07:19pm 12.1 6.9 10.3 89 0.9 SSE 28 43 15 23 1005.1 1005.1 0.2
24/07:00pm 13.4 11.2 9.3 76 2.1 W 11 17 6 9 1004.7 1004.7 0.2
24/06:30pm 13.8 10.8 9.3 74 2.3 W 15 20 8 11 1004.3 1004.3 0.2
24/06:00pm 13.7 11.5 9.4 75 2.2 WNW 11 17 6 9 1003.9 1003.9 0.2
24/05:30pm 13.9 11.8 9.7 76 2.2 WNW 11 17 6 9 1003.7 1003.7 0.2
24/05:00pm 14.2 12.3 10.6 79 1.9 NW 11 15 6 8 1003.6 1003.6 0.2
24/04:30pm 14.1 12.3 10.9 81 1.7 NW 11 13 6 7 1003.4 1003.4 0.2
24/04:00pm 14.3 13.0 11.3 82 1.6 NW 9 11 5 6 1003.3 1003.3 0.2
24/03:30pm 14.3 12.8 11.8 85 1.3 NNW 11 13 6 7 1003.5 1003.5 0.2
24/03:00pm 14.2 13.3 11.5 84 1.4 N 7 13 4 7 1003.2 1003.2 0.2
24/02:30pm 14.4 14.4 12.3 87 1.1 NE 4 6 2 3 1003.2 1003.2 0.2
24/02:00pm 14.8 14.1 12.1 84 1.5 ENE 7 9 4 5 1003.2 1003.2 0.2
24/01:30pm 14.9 13.6 12.4 85 1.4 ENE 11 13 6 7 1002.8 1002.8 0.2
24/01:00pm 15.0 13.9 13.2 89 1.0 E 11 15 6 8 1002.6 1002.6 0.2
24/12:30pm 13.7 12.5 12.9 95 0.4 ESE 11 15 6 8 1002.5 1002.5 0.2
24/12:00pm 13.4 12.4 13.4 100 0.0 ESE 11 15 6 8 1002.1 1002.1 0.2
24/11:30am 12.8 12.0 12.8 100 0.0 SE 9 15 5 8 1002.2 1002.2 0.2
24/11:00am 12.9 11.3 12.9 100 0.0 ESE 13 17 7 9 1002.1 1002.1 0.2
24/10:30am 13.8 12.9 13.8 100 0.0 W 11 17 6 9 1001.8 1001.8 0.0
24/10:00am 14.4 14.1 14.4 100 0.0 WSW 9 15 5 8 1001.3 1001.3 0.0
24/09:30am 14.1 13.3 14.1 100 0.0 W 11 17 6 9 1001.3 1001.3 0.0
24/09:00am 13.7 11.6 13.7 100 0.0 W 17 24 9 13 1001.2 1001.2 9.2
24/08:30am 13.7 12.8 13.7 100 0.0 W 11 17 6 9 1000.8 1000.8 9.2
24/08:00am 13.6 12.7 13.6 100 0.0 W 11 15 6 8 1000.6 1000.6 9.2
24/07:30am 13.6 13.4 13.6 100 0.0 WSW 7 13 4 7 1000.4 1000.4 9.2
24/07:00am 13.4 12.8 13.4 100 0.0 W 9 13 5 7 1000.3 1000.3 9.2
24/06:30am 13.4 13.3 13.4 100 0.0 W 6 9 3 5 1000.2 1000.2 9.0
24/06:00am 13.4 13.1 13.4 100 0.0 W 7 9 4 5 1000.5 1000.5 9.0
24/05:30am 13.5 13.5 13.5 100 0.0 W 6 7 3 4 1000.6 1000.6 8.8
24/05:00am 13.5 13.5 13.5 100 0.0 WSW 6 9 3 5 1000.8 1000.8 8.4
24/04:30am 13.5 13.5 13.5 100 0.0 W 6 6 3 3 1001.2 1001.2 8.0
24/04:00am 13.6 13.6 13.6 100 0.0 W 6 7 3 4 1001.2 1001.2 7.6
24/03:30am 13.7 14.9 13.7 100 0.0 CALM 0 0 0 0 1001.5 1001.5 7.2
24/03:00am 13.7 14.9 13.7 100 0.0 CALM 0 0 0 0 1001.6 1001.6 6.2
24/02:30am 13.7 14.9 13.7 100 0.0 CALM 0 0 0 0 1001.8 1001.8 3.6
24/02:00am 13.7 14.9 13.7 100 0.0 CALM 0 0 0 0 1002.5 1002.5 2.6
24/01:30am 13.7 14.1 13.7 100 0.0 W 4 6 2 3 1003.1 1003.1 2.0
24/01:00am 13.8 14.6 13.8 100 0.0 WSW 2 4 1 2 1003.4 1003.4 1.8
24/12:30am 13.9 14.0 13.9 100 0.0 W 6 7 3 4 1003.9 1003.9 1.6
24/12:00am 14.1 13.7 14.1 100 0.0 WNW 9 15 5 8 1004.3 1004.3 1.2
 
Date/Time
EDT
Temp
°C
App
Temp
°C
Dew
Point
°C
Rel
Hum
%
Delta-T
°C
Wind Press
QNH
hPa
Press
MSL
hPa
Rain since
9am
mm
Dir  Spd
km/h
Gust
km/h
Spd
kts
Gust
kts
23/11:30pm 14.0 12.0 14.0 100 0.0 N 17 20 9 11 1004.5 1004.5 1.2
23/11:00pm 14.3 13.6 14.3 100 0.0 N 11 17 6 9 1004.7 1004.7 1.2
23/10:30pm 14.1 14.6 14.1 100 0.0 N 4 7 2 4 1005.2 1005.2 1.2
23/10:00pm 14.2 13.1 14.2 100 0.0 NNE 13 17 7 9 1005.5 1005.5 1.2
23/09:30pm 14.1 13.3 14.1 100 0.0 N 11 15 6 8 1006.0 1006.0 1.2
23/09:00pm 14.1 13.7 14.1 100 0.0 NNE 9 13 5 7 1006.1 1006.1 1.2
23/08:30pm 14.0 13.9 14.0 100 0.0 NNE 7 11 4 6 1005.9 1005.9 1.2
23/08:00pm 14.1 13.7 14.1 100 0.0 NNE 9 13 5 7 1005.8 1005.8 1.2
23/07:30pm 14.0 13.6 14.0 100 0.0 NNE 9 13 5 7 1005.7 1005.7 1.2
23/07:00pm 14.0 12.4 13.8 99 0.1 NE 15 20 8 11 1005.7 1005.7 1.2
23/06:30pm 14.1 12.5 13.9 99 0.1 NE 15 19 8 10 1005.7 1005.7 1.2
23/06:00pm 14.1 12.8 13.8 98 0.2 NE 13 17 7 9 1006.0 1006.0 1.2
23/05:30pm 14.2 13.7 13.9 98 0.2 NE 9 13 5 7 1006.4 1006.4 1.2
23/05:00pm 14.1 12.8 13.8 98 0.2 NE 13 17 7 9 1006.5 1006.5 1.2
23/04:30pm 13.9 12.9 13.4 97 0.3 ENE 11 13 6 7 1006.6 1006.6 1.2
23/04:00pm 13.8 13.1 13.2 96 0.3 NNE 9 13 5 7 1007.2 1007.2 1.2
23/03:30pm 13.6 13.3 12.8 95 0.4 NNE 6 7 3 4 1007.8 1007.8 1.0
23/03:00pm 14.0 13.8 12.9 93 0.6 NNE 6 6 3 3 1008.2 1008.2 1.0
23/02:30pm 14.1 14.2 12.8 92 0.7 NNE 4 6 2 3 1008.7 1008.7 1.0
23/02:00pm 14.4 14.3 13.3 93 0.6 NNE 6 7 3 4 1008.7 1008.7 1.0
23/01:30pm 13.9 13.5 13.0 94 0.5 NNE 7 9 4 5 1008.8 1008.8 1.0
23/01:00pm 14.5 14.5 13.7 95 0.4 NNE 6 9 3 5 1009.0 1009.0 1.0
23/12:30pm 13.8 14.3 12.9 94 0.5 NNE 2 6 1 3 1009.9 1009.9 0.8
23/12:00pm 13.3 13.3 12.5 95 0.4 NNE 4 7 2 4 1010.1 1010.1 0.6
23/11:30am 13.5 13.2 12.7 95 0.4 NNE 6 7 3 4 1010.4 1010.4 0.6
23/11:00am 13.4 13.0 12.5 94 0.5 NNE 6 6 3 3 1010.6 1010.6 0.6
23/10:30am 13.4 13.7 12.1 92 0.7 NNE 2 4 1 2 1011.2 1011.1 0.0
23/10:00am 13.5 14.2 12.1 91 0.8 CALM 0 0 0 0 1011.6 1011.5 0.0
23/09:30am 13.4 13.7 12.1 92 0.7 NNE 2 4 1 2 1011.6 1011.5 0.0
23/09:00am 12.7 12.0 11.4 92 0.7 NNE 6 7 3 4 1011.6 1011.5 0.0
23/08:30am 12.7 12.4 11.3 91 0.7 NNE 4 6 2 3 1011.9 1011.8 0.0
23/08:00am 13.0 13.5 11.6 91 0.7 CALM 0 0 0 0 1012.1 1012.0 0.0
23/07:30am 12.6 11.9 11.3 92 0.7 NNE 6 6 3 3 1011.8 1011.7 0.0
23/07:00am 12.3 11.3 11.0 92 0.7 NNE 7 9 4 5 1011.6 1011.5 0.0
23/06:30am 11.9 11.3 10.5 91 0.7 NNE 4 6 2 3 1011.6 1011.5 0.0
23/06:00am 11.8 11.9 10.2 90 0.8 CALM 0 0 0 0 1011.4 1011.3 0.0
23/05:30am 11.7 11.7 9.9 89 0.9 CALM 0 0 0 0 1011.5 1011.4 0.0
23/05:00am 12.0 11.3 10.1 88 1.0 NNE 4 6 2 3 1011.6 1011.5 0.0
23/04:30am 12.1 11.5 10.3 89 0.9 NNE 4 6 2 3 1011.9 1011.8 0.0
23/04:00am 11.7 10.6 9.9 89 0.9 NNE 6 7 3 4 1011.8 1011.7 0.0
23/03:30am 11.7 10.4 9.9 89 0.9 NNE 7 9 4 5 1012.1 1012.0 0.0
23/03:00am 11.8 10.6 10.2 90 0.8 NNE 7 11 4 6 1012.7 1012.6 0.0
23/02:30am 11.9 10.8 10.5 91 0.7 NNE 7 11 4 6 1013.2 1013.2 0.0
23/02:00am 12.0 10.9 10.6 91 0.7 NNE 7 11 4 6 1013.8 1013.8 0.0
23/01:30am 12.3 10.5 10.7 90 0.8 NNE 11 13 6 7 1014.1 1014.1 0.0
23/01:00am 12.2 10.3 10.6 90 0.8 NNE 11 15 6 8 1014.5 1014.5 0.0
23/12:30am 12.4 10.2 10.8 90 0.8 NNE 13 17 7 9 1014.9 1014.9 0.0
23/12:00am 12.4 10.3 11.0 91 0.7 NE 13 15 7 8 1015.3 1015.3 0.0
 
Date/Time
EDT
Temp
°C
App
Temp
°C
Dew
Point
°C
Rel
Hum
%
Delta-T
°C
Wind Press
QNH
hPa
Press
MSL
hPa
Rain since
9am
mm
Dir  Spd
km/h
Gust
km/h
Spd
kts
Gust
kts
22/11:30pm 12.3 10.9 11.0 92 0.7 NE 9 11 5 6 1015.6 1015.6 0.0
22/11:00pm 12.4 11.4 11.0 91 0.7 NE 7 9 4 5 1015.9 1015.9 0.0
22/10:30pm 12.7 11.3 10.9 89 0.9 NE 9 11 5 6 1016.1 1016.1 0.0
22/10:00pm 12.8 11.1 11.2 90 0.8 ENE 11 13 6 7 1015.8 1015.8 0.0
22/09:30pm 12.7 11.0 11.1 90 0.8 NE 11 13 6 7 1015.8 1015.8 0.0
22/09:00pm 12.8 11.0 10.9 88 1.0 ENE 11 13 6 7 1015.8 1015.8 0.0
22/08:30pm 13.0 10.9 11.2 89 0.9 ENE 13 15 7 8 1015.2 1015.2 0.0
22/08:00pm 13.0 12.0 11.1 88 1.0 ENE 7 7 4 4 1015.6 1015.6 0.0
22/07:30pm 13.2 12.1 10.7 85 1.3 E 7 9 4 5 1015.8 1015.8 0.0
22/07:00pm 13.8 11.6 10.8 82 1.6 ESE 13 15 7 8 1015.2 1015.2 0.0
22/06:30pm 14.0 11.7 10.6 80 1.8 E 13 15 7 8 1015.4 1015.4 0.0
22/06:00pm 14.4 12.2 10.8 79 1.9 ESE 13 15 7 8 1015.1 1015.1 0.0
22/05:30pm 14.9 12.8 11.3 79 1.9 E 13 17 7 9 1014.9 1014.9 0.0
22/05:00pm 15.6 13.9 11.2 75 2.4 ESE 11 15 6 8 1015.0 1015.0 0.0
22/04:30pm 15.7 13.8 11.9 78 2.1 ESE 13 15 7 8 1015.2 1015.2 0.0
22/04:00pm 15.2 12.4 11.4 78 2.0 SE 17 19 9 10 1015.2 1015.2 0.0
22/03:30pm 15.2 12.9 10.4 73 2.5 ESE 13 17 7 9 1015.2 1015.2 0.0
22/03:00pm 16.9 14.6 11.8 72 2.8 E 15 19 8 10 1015.3 1015.3 0.0
22/02:30pm 16.1 13.7 11.5 74 2.5 ESE 15 17 8 9 1015.5 1015.5 0.0
22/02:00pm 16.7 14.7 11.6 72 2.8 ESE 13 17 7 9 1015.6 1015.6 0.0
22/01:30pm 17.3 15.1 12.0 71 2.9 ESE 15 19 8 10 1015.9 1015.9 0.0
22/01:00pm 17.3 15.0 11.8 70 3.0 E 15 19 8 10 1015.9 1015.9 0.0
22/12:30pm 16.7 14.4 11.8 73 2.7 E 15 19 8 10 1016.1 1016.1 0.0
22/12:00pm 15.4 12.0 11.4 77 2.1 ESE 20 22 11 12 1016.1 1016.1 0.0
22/11:30am 15.5 12.3 11.9 79 2.0 SE 20 28 11 15 1016.4 1016.4 0.0
22/11:00am 15.6 12.6 12.0 79 2.0 SE 19 26 10 14 1016.7 1016.7 0.0
22/10:30am 15.4 12.2 11.8 79 1.9 SE 20 28 11 15 1016.6 1016.6 0.0
22/10:00am 15.5 12.0 12.3 81 1.7 SE 22 28 12 15 1016.4 1016.4 0.0
22/09:30am 15.0 11.4 12.0 82 1.6 SE 22 28 12 15 1016.5 1016.5 0.0
22/09:00am 14.3 11.1 12.0 86 1.2 SE 20 28 11 15 1016.6 1016.6 0.0
22/08:30am 13.9 11.2 11.8 87 1.1 SSE 17 26 9 14 1016.2 1016.2 0.0
22/08:00am 12.9 10.7 10.8 87 1.1 SSE 13 17 7 9 1016.1 1016.1 0.0
22/07:30am 12.7 10.9 10.9 89 0.9 SSE 11 20 6 11 1016.0 1016.0 0.0
22/07:00am 11.7 9.8 10.4 92 0.7 SSE 11 17 6 9 1016.1 1016.1 0.0
22/06:30am 11.8 9.5 10.5 92 0.7 SSE 13 17 7 9 1015.5 1015.5 0.0
22/06:00am 12.0 9.8 10.7 92 0.7 SSE 13 17 7 9 1015.3 1015.3 0.0
22/05:30am 11.8 11.0 10.9 94 0.5 S 6 11 3 6 1015.1 1015.1 0.0

Other formats

Comma delimited format used in spreadsheet applications
http://www.bom.gov.au/fwo/IDT60801/IDT60801.95985.axf

JavaScript Object Notation format (JSON) in row-major order
http://www.bom.gov.au/fwo/IDT60801/IDT60801.95985.json

Data quality

Most of these data are generated automatically and are frequently updated. Quality checks on data are not normally performed. It is possible for incorrect values to appear. Refer to information at About Latest Weather Observations and please check the disclaimer before using these data.